sensor_id;sensor_type;location;lat;lon;timestamp;P1;durP1;ratioP1;P2;durP2;ratioP2
21786;SDS011;11055;50.870;4.316;2023-07-20T00:01:15;3.95;;;2.53;;
21786;SDS011;11055;50.870;4.316;2023-07-20T00:03:41;8.98;;;2.75;;
21786;SDS011;11055;50.870;4.316;2023-07-20T00:06:07;6.32;;;2.75;;
21786;SDS011;11055;50.870;4.316;2023-07-20T00:08:33;6.47;;;2.72;;
21786;SDS011;11055;50.870;4.316;2023-07-20T00:10:59;5.72;;;2.72;;
21786;SDS011;11055;50.870;4.316;2023-07-20T00:13:24;3.78;;;2.60;;
21786;SDS011;11055;50.870;4.316;2023-07-20T00:15:51;5.40;;;2.47;;
21786;SDS011;11055;50.870;4.316;2023-07-20T00:18:17;5.35;;;2.80;;
21786;SDS011;11055;50.870;4.316;2023-07-20T00:20:46;6.60;;;2.78;;
21786;SDS011;11055;50.870;4.316;2023-07-20T00:23:12;10.38;;;2.90;;
21786;SDS011;11055;50.870;4.316;2023-07-20T00:25:37;6.35;;;2.72;;
21786;SDS011;11055;50.870;4.316;2023-07-20T00:28:03;7.00;;;3.35;;
21786;SDS011;11055;50.870;4.316;2023-07-20T00:30:29;7.93;;;2.88;;
21786;SDS011;11055;50.870;4.316;2023-07-20T00:32:54;5.95;;;2.70;;
21786;SDS011;11055;50.870;4.316;2023-07-20T00:35:20;10.10;;;3.22;;
21786;SDS011;11055;50.870;4.316;2023-07-20T00:37:46;8.23;;;3.03;;
21786;SDS011;11055;50.870;4.316;2023-07-20T00:40:11;8.23;;;3.13;;
21786;SDS011;11055;50.870;4.316;2023-07-20T00:42:37;9.38;;;2.95;;
21786;SDS011;11055;50.870;4.316;2023-07-20T00:45:03;4.38;;;2.92;;
21786;SDS011;11055;50.870;4.316;2023-07-20T00:47:29;4.72;;;2.80;;
21786;SDS011;11055;50.870;4.316;2023-07-20T00:49:56;6.00;;;2.67;;
21786;SDS011;11055;50.870;4.316;2023-07-20T00:52:21;5.90;;;3.00;;
21786;SDS011;11055;50.870;4.316;2023-07-20T00:54:49;7.40;;;3.13;;
21786;SDS011;11055;50.870;4.316;2023-07-20T00:57:16;7.47;;;2.97;;
21786;SDS011;11055;50.870;4.316;2023-07-20T00:59:44;5.03;;;3.08;;
21786;SDS011;11055;50.870;4.316;2023-07-20T01:02:09;4.97;;;2.70;;
21786;SDS011;11055;50.870;4.316;2023-07-20T01:04:35;5.97;;;3.22;;
21786;SDS011;11055;50.870;4.316;2023-07-20T01:07:25;5.95;;;2.95;;
21786;SDS011;11055;50.870;4.316;2023-07-20T01:10:12;8.32;;;2.83;;
21786;SDS011;11055;50.870;4.316;2023-07-20T01:12:42;7.93;;;3.15;;
21786;SDS011;11055;50.870;4.316;2023-07-20T01:15:11;6.32;;;3.08;;
21786;SDS011;11055;50.870;4.316;2023-07-20T01:17:38;8.18;;;3.40;;
21786;SDS011;11055;50.870;4.316;2023-07-20T01:20:04;6.70;;;2.97;;
21786;SDS011;11055;50.870;4.316;2023-07-20T01:25:27;7.03;;;3.05;;
21786;SDS011;11055;50.870;4.316;2023-07-20T01:30:52;6.95;;;3.30;;
21786;SDS011;11055;50.870;4.316;2023-07-20T01:33:25;6.28;;;3.20;;
21786;SDS011;11055;50.870;4.316;2023-07-20T01:35:55;6.38;;;3.30;;
21786;SDS011;11055;50.870;4.316;2023-07-20T01:38:23;7.07;;;3.38;;
21786;SDS011;11055;50.870;4.316;2023-07-20T01:40:49;7.45;;;3.50;;
21786;SDS011;11055;50.870;4.316;2023-07-20T01:43:16;11.38;;;4.47;;
21786;SDS011;11055;50.870;4.316;2023-07-20T01:45:42;8.50;;;4.35;;
21786;SDS011;11055;50.870;4.316;2023-07-20T01:48:09;9.07;;;3.95;;
21786;SDS011;11055;50.870;4.316;2023-07-20T01:50:35;9.60;;;4.05;;
21786;SDS011;11055;50.870;4.316;2023-07-20T01:53:00;10.23;;;4.10;;
21786;SDS011;11055;50.870;4.316;2023-07-20T01:55:26;11.35;;;4.75;;
21786;SDS011;11055;50.870;4.316;2023-07-20T01:57:52;9.57;;;4.20;;
21786;SDS011;11055;50.870;4.316;2023-07-20T02:00:18;9.25;;;4.78;;
21786;SDS011;11055;50.870;4.316;2023-07-20T02:02:46;7.75;;;4.10;;
21786;SDS011;11055;50.870;4.316;2023-07-20T02:05:12;11.23;;;4.60;;
21786;SDS011;11055;50.870;4.316;2023-07-20T02:07:39;10.73;;;4.60;;
21786;SDS011;11055;50.870;4.316;2023-07-20T02:10:05;10.40;;;4.57;;
21786;SDS011;11055;50.870;4.316;2023-07-20T02:12:31;8.98;;;4.90;;
21786;SDS011;11055;50.870;4.316;2023-07-20T02:14:56;8.13;;;5.18;;
21786;SDS011;11055;50.870;4.316;2023-07-20T02:17:22;9.20;;;5.15;;
21786;SDS011;11055;50.870;4.316;2023-07-20T02:19:50;11.93;;;5.60;;
21786;SDS011;11055;50.870;4.316;2023-07-20T02:22:17;10.60;;;5.32;;
21786;SDS011;11055;50.870;4.316;2023-07-20T02:24:43;11.55;;;5.22;;
21786;SDS011;11055;50.870;4.316;2023-07-20T02:27:09;9.63;;;5.22;;
21786;SDS011;11055;50.870;4.316;2023-07-20T02:29:34;10.25;;;5.55;;
21786;SDS011;11055;50.870;4.316;2023-07-20T02:32:01;10.52;;;5.50;;
21786;SDS011;11055;50.870;4.316;2023-07-20T02:34:27;16.92;;;5.75;;
21786;SDS011;11055;50.870;4.316;2023-07-20T02:36:52;18.27;;;6.15;;
21786;SDS011;11055;50.870;4.316;2023-07-20T02:39:21;10.40;;;5.68;;
21786;SDS011;11055;50.870;4.316;2023-07-20T02:41:47;7.80;;;5.50;;
21786;SDS011;11055;50.870;4.316;2023-07-20T02:44:13;10.48;;;6.10;;
21786;SDS011;11055;50.870;4.316;2023-07-20T02:46:39;12.73;;;6.15;;
21786;SDS011;11055;50.870;4.316;2023-07-20T02:49:05;9.13;;;6.05;;
21786;SDS011;11055;50.870;4.316;2023-07-20T02:51:30;12.85;;;6.68;;
21786;SDS011;11055;50.870;4.316;2023-07-20T02:53:56;14.13;;;7.30;;
21786;SDS011;11055;50.870;4.316;2023-07-20T02:56:22;12.35;;;7.07;;
21786;SDS011;11055;50.870;4.316;2023-07-20T02:58:48;11.85;;;6.22;;
21786;SDS011;11055;50.870;4.316;2023-07-20T03:01:13;12.13;;;6.90;;
21786;SDS011;11055;50.870;4.316;2023-07-20T03:03:40;13.57;;;7.63;;
21786;SDS011;11055;50.870;4.316;2023-07-20T03:08:37;17.00;;;6.95;;
21786;SDS011;11055;50.870;4.316;2023-07-20T03:11:03;10.95;;;7.00;;
21786;SDS011;11055;50.870;4.316;2023-07-20T03:13:29;11.00;;;7.72;;
21786;SDS011;11055;50.870;4.316;2023-07-20T03:15:55;14.98;;;8.38;;
21786;SDS011;11055;50.870;4.316;2023-07-20T03:18:20;12.43;;;7.60;;
21786;SDS011;11055;50.870;4.316;2023-07-20T03:20:46;13.60;;;7.40;;
21786;SDS011;11055;50.870;4.316;2023-07-20T03:23:13;14.07;;;8.23;;
21786;SDS011;11055;50.870;4.316;2023-07-20T03:25:40;15.70;;;7.97;;
21786;SDS011;11055;50.870;4.316;2023-07-20T03:28:06;15.02;;;8.23;;
21786;SDS011;11055;50.870;4.316;2023-07-20T03:30:32;15.75;;;8.73;;
21786;SDS011;11055;50.870;4.316;2023-07-20T03:32:58;13.80;;;8.68;;
21786;SDS011;11055;50.870;4.316;2023-07-20T03:35:24;11.02;;;8.05;;
21786;SDS011;11055;50.870;4.316;2023-07-20T03:37:49;14.32;;;8.40;;
21786;SDS011;11055;50.870;4.316;2023-07-20T03:40:15;12.63;;;8.00;;
21786;SDS011;11055;50.870;4.316;2023-07-20T03:42:41;15.88;;;9.32;;
21786;SDS011;11055;50.870;4.316;2023-07-20T03:45:07;14.60;;;8.98;;
21786;SDS011;11055;50.870;4.316;2023-07-20T03:47:33;17.17;;;9.63;;
21786;SDS011;11055;50.870;4.316;2023-07-20T03:49:59;14.10;;;8.55;;
21786;SDS011;11055;50.870;4.316;2023-07-20T03:52:24;12.05;;;8.38;;
21786;SDS011;11055;50.870;4.316;2023-07-20T03:54:50;15.30;;;8.98;;
21786;SDS011;11055;50.870;4.316;2023-07-20T03:57:18;16.30;;;9.20;;
21786;SDS011;11055;50.870;4.316;2023-07-20T03:59:44;17.88;;;9.10;;
21786;SDS011;11055;50.870;4.316;2023-07-20T04:02:11;16.60;;;8.98;;
21786;SDS011;11055;50.870;4.316;2023-07-20T04:04:37;17.70;;;9.35;;
21786;SDS011;11055;50.870;4.316;2023-07-20T04:07:02;14.70;;;8.88;;
21786;SDS011;11055;50.870;4.316;2023-07-20T04:09:28;13.25;;;8.70;;
21786;SDS011;11055;50.870;4.316;2023-07-20T04:11:54;14.20;;;8.88;;
21786;SDS011;11055;50.870;4.316;2023-07-20T04:14:20;14.85;;;10.85;;
21786;SDS011;11055;50.870;4.316;2023-07-20T04:16:46;16.45;;;9.90;;
21786;SDS011;11055;50.870;4.316;2023-07-20T04:19:12;15.93;;;9.80;;
21786;SDS011;11055;50.870;4.316;2023-07-20T04:21:42;16.70;;;10.45;;
21786;SDS011;11055;50.870;4.316;2023-07-20T04:24:08;17.20;;;10.20;;
21786;SDS011;11055;50.870;4.316;2023-07-20T04:26:34;19.92;;;10.23;;
21786;SDS011;11055;50.870;4.316;2023-07-20T04:29:00;14.00;;;9.27;;
21786;SDS011;11055;50.870;4.316;2023-07-20T04:31:26;16.40;;;9.52;;
21786;SDS011;11055;50.870;4.316;2023-07-20T04:33:52;16.10;;;9.55;;
21786;SDS011;11055;50.870;4.316;2023-07-20T04:36:17;20.33;;;10.55;;
21786;SDS011;11055;50.870;4.316;2023-07-20T04:38:47;18.30;;;10.48;;
21786;SDS011;11055;50.870;4.316;2023-07-20T04:41:13;16.65;;;11.02;;
21786;SDS011;11055;50.870;4.316;2023-07-20T04:43:43;14.38;;;10.20;;
21786;SDS011;11055;50.870;4.316;2023-07-20T04:46:12;17.75;;;10.40;;
21786;SDS011;11055;50.870;4.316;2023-07-20T04:48:37;16.25;;;10.43;;
21786;SDS011;11055;50.870;4.316;2023-07-20T04:51:03;14.57;;;10.00;;
21786;SDS011;11055;50.870;4.316;2023-07-20T04:53:29;18.80;;;10.57;;
21786;SDS011;11055;50.870;4.316;2023-07-20T04:55:56;15.90;;;11.02;;
21786;SDS011;11055;50.870;4.316;2023-07-20T04:58:22;13.73;;;9.63;;
21786;SDS011;11055;50.870;4.316;2023-07-20T05:00:48;17.02;;;10.90;;
21786;SDS011;11055;50.870;4.316;2023-07-20T05:03:17;16.75;;;10.48;;
21786;SDS011;11055;50.870;4.316;2023-07-20T05:05:43;13.05;;;10.38;;
21786;SDS011;11055;50.870;4.316;2023-07-20T05:08:08;17.13;;;11.18;;
21786;SDS011;11055;50.870;4.316;2023-07-20T05:10:34;16.45;;;10.20;;
21786;SDS011;11055;50.870;4.316;2023-07-20T05:13:00;16.85;;;10.65;;
21786;SDS011;11055;50.870;4.316;2023-07-20T05:15:26;17.70;;;10.35;;
21786;SDS011;11055;50.870;4.316;2023-07-20T05:17:51;14.85;;;11.10;;
21786;SDS011;11055;50.870;4.316;2023-07-20T05:20:17;14.93;;;10.25;;
21786;SDS011;11055;50.870;4.316;2023-07-20T05:22:43;17.50;;;10.77;;
21786;SDS011;11055;50.870;4.316;2023-07-20T05:25:10;15.38;;;10.70;;
21786;SDS011;11055;50.870;4.316;2023-07-20T05:27:37;14.70;;;11.40;;
21786;SDS011;11055;50.870;4.316;2023-07-20T05:30:03;15.90;;;10.68;;
21786;SDS011;11055;50.870;4.316;2023-07-20T05:32:30;17.90;;;11.50;;
21786;SDS011;11055;50.870;4.316;2023-07-20T05:34:55;18.02;;;10.60;;
21786;SDS011;11055;50.870;4.316;2023-07-20T05:37:21;14.25;;;10.43;;
21786;SDS011;11055;50.870;4.316;2023-07-20T05:39:47;15.23;;;10.57;;
21786;SDS011;11055;50.870;4.316;2023-07-20T05:42:13;14.30;;;10.85;;
21786;SDS011;11055;50.870;4.316;2023-07-20T05:44:39;14.65;;;10.23;;
21786;SDS011;11055;50.870;4.316;2023-07-20T05:47:05;14.85;;;10.48;;
21786;SDS011;11055;50.870;4.316;2023-07-20T05:49:31;15.57;;;10.75;;
21786;SDS011;11055;50.870;4.316;2023-07-20T05:51:57;14.88;;;10.93;;
21786;SDS011;11055;50.870;4.316;2023-07-20T05:54:26;16.48;;;11.45;;
21786;SDS011;11055;50.870;4.316;2023-07-20T05:56:52;17.13;;;11.05;;
21786;SDS011;11055;50.870;4.316;2023-07-20T05:59:18;15.52;;;11.95;;
21786;SDS011;11055;50.870;4.316;2023-07-20T06:01:48;14.43;;;10.95;;
21786;SDS011;11055;50.870;4.316;2023-07-20T06:04:14;15.23;;;10.52;;
21786;SDS011;11055;50.870;4.316;2023-07-20T06:06:41;16.17;;;10.68;;
21786;SDS011;11055;50.870;4.316;2023-07-20T06:09:06;15.75;;;11.02;;
21786;SDS011;11055;50.870;4.316;2023-07-20T06:11:37;14.88;;;10.82;;
21786;SDS011;11055;50.870;4.316;2023-07-20T06:14:03;15.70;;;10.88;;
21786;SDS011;11055;50.870;4.316;2023-07-20T06:16:29;17.92;;;10.75;;
21786;SDS011;11055;50.870;4.316;2023-07-20T06:18:55;17.63;;;11.25;;
21786;SDS011;11055;50.870;4.316;2023-07-20T06:21:21;13.13;;;9.80;;
21786;SDS011;11055;50.870;4.316;2023-07-20T06:23:47;18.33;;;11.18;;
21786;SDS011;11055;50.870;4.316;2023-07-20T06:26:12;13.05;;;10.25;;
21786;SDS011;11055;50.870;4.316;2023-07-20T06:28:38;14.77;;;9.85;;
21786;SDS011;11055;50.870;4.316;2023-07-20T06:31:04;16.48;;;10.55;;
21786;SDS011;11055;50.870;4.316;2023-07-20T06:33:29;12.32;;;9.15;;
21786;SDS011;11055;50.870;4.316;2023-07-20T06:35:55;16.63;;;9.98;;
21786;SDS011;11055;50.870;4.316;2023-07-20T06:38:22;14.50;;;9.13;;
21786;SDS011;11055;50.870;4.316;2023-07-20T06:40:51;8.98;;;8.07;;
21786;SDS011;11055;50.870;4.316;2023-07-20T06:43:17;10.20;;;7.55;;
21786;SDS011;11055;50.870;4.316;2023-07-20T06:45:43;9.73;;;7.18;;
21786;SDS011;11055;50.870;4.316;2023-07-20T06:48:09;11.82;;;7.65;;
21786;SDS011;11055;50.870;4.316;2023-07-20T06:50:34;10.45;;;7.05;;
21786;SDS011;11055;50.870;4.316;2023-07-20T06:53:00;9.07;;;6.07;;
21786;SDS011;11055;50.870;4.316;2023-07-20T06:55:28;7.35;;;4.32;;
21786;SDS011;11055;50.870;4.316;2023-07-20T06:57:54;4.97;;;4.47;;
21786;SDS011;11055;50.870;4.316;2023-07-20T07:00:20;8.75;;;5.32;;
21786;SDS011;11055;50.870;4.316;2023-07-20T07:02:46;9.15;;;6.43;;
21786;SDS011;11055;50.870;4.316;2023-07-20T07:05:11;7.97;;;5.88;;
21786;SDS011;11055;50.870;4.316;2023-07-20T07:07:39;7.00;;;6.13;;
21786;SDS011;11055;50.870;4.316;2023-07-20T07:10:05;9.05;;;5.30;;
21786;SDS011;11055;50.870;4.316;2023-07-20T07:12:31;4.47;;;3.85;;
21786;SDS011;11055;50.870;4.316;2023-07-20T07:17:31;7.00;;;3.97;;
21786;SDS011;11055;50.870;4.316;2023-07-20T07:19:57;7.32;;;4.15;;
21786;SDS011;11055;50.870;4.316;2023-07-20T07:22:23;3.85;;;3.00;;
21786;SDS011;11055;50.870;4.316;2023-07-20T07:24:49;3.03;;;2.67;;
21786;SDS011;11055;50.870;4.316;2023-07-20T07:27:15;3.83;;;2.60;;
21786;SDS011;11055;50.870;4.316;2023-07-20T07:29:43;3.67;;;2.47;;
21786;SDS011;11055;50.870;4.316;2023-07-20T07:32:14;4.22;;;2.50;;
21786;SDS011;11055;50.870;4.316;2023-07-20T07:34:40;4.07;;;2.50;;
21786;SDS011;11055;50.870;4.316;2023-07-20T07:37:06;5.38;;;2.22;;
21786;SDS011;11055;50.870;4.316;2023-07-20T07:39:32;3.53;;;2.45;;
21786;SDS011;11055;50.870;4.316;2023-07-20T07:41:58;2.40;;;2.20;;
21786;SDS011;11055;50.870;4.316;2023-07-20T07:44:23;3.17;;;2.55;;
21786;SDS011;11055;50.870;4.316;2023-07-20T07:46:49;3.05;;;2.75;;
21786;SDS011;11055;50.870;4.316;2023-07-20T07:49:16;2.75;;;2.50;;
21786;SDS011;11055;50.870;4.316;2023-07-20T07:51:43;2.88;;;1.90;;
21786;SDS011;11055;50.870;4.316;2023-07-20T07:54:09;2.22;;;1.90;;
21786;SDS011;11055;50.870;4.316;2023-07-20T07:56:34;2.95;;;2.10;;
21786;SDS011;11055;50.870;4.316;2023-07-20T07:59:00;2.22;;;1.23;;
21786;SDS011;11055;50.870;4.316;2023-07-20T08:01:26;2.47;;;1.58;;
21786;SDS011;11055;50.870;4.316;2023-07-20T08:03:52;2.53;;;1.55;;
21786;SDS011;11055;50.870;4.316;2023-07-20T08:06:18;3.47;;;1.80;;
21786;SDS011;11055;50.870;4.316;2023-07-20T08:08:43;2.38;;;1.50;;
21786;SDS011;11055;50.870;4.316;2023-07-20T08:11:09;2.63;;;1.35;;
21786;SDS011;11055;50.870;4.316;2023-07-20T08:13:35;2.75;;;1.50;;
21786;SDS011;11055;50.870;4.316;2023-07-20T08:16:01;1.77;;;1.40;;
21786;SDS011;11055;50.870;4.316;2023-07-20T08:18:27;2.70;;;1.40;;
21786;SDS011;11055;50.870;4.316;2023-07-20T08:20:53;2.80;;;1.52;;
21786;SDS011;11055;50.870;4.316;2023-07-20T08:23:19;2.17;;;1.50;;
21786;SDS011;11055;50.870;4.316;2023-07-20T08:25:45;1.98;;;1.65;;
21786;SDS011;11055;50.870;4.316;2023-07-20T08:28:13;1.60;;;1.50;;
21786;SDS011;11055;50.870;4.316;2023-07-20T08:30:46;1.98;;;1.40;;
21786;SDS011;11055;50.870;4.316;2023-07-20T08:33:14;2.65;;;1.30;;
21786;SDS011;11055;50.870;4.316;2023-07-20T08:35:41;3.00;;;1.00;;
21786;SDS011;11055;50.870;4.316;2023-07-20T08:38:07;1.55;;;1.20;;
21786;SDS011;11055;50.870;4.316;2023-07-20T08:40:34;1.67;;;1.30;;
21786;SDS011;11055;50.870;4.316;2023-07-20T08:43:05;2.65;;;1.42;;
21786;SDS011;11055;50.870;4.316;2023-07-20T08:45:32;2.30;;;1.30;;
21786;SDS011;11055;50.870;4.316;2023-07-20T08:47:59;1.88;;;1.13;;
21786;SDS011;11055;50.870;4.316;2023-07-20T08:50:29;1.98;;;1.27;;
21786;SDS011;11055;50.870;4.316;2023-07-20T08:52:56;2.13;;;1.40;;
21786;SDS011;11055;50.870;4.316;2023-07-20T08:55:23;3.17;;;1.20;;
21786;SDS011;11055;50.870;4.316;2023-07-20T08:57:51;4.03;;;1.70;;
21786;SDS011;11055;50.870;4.316;2023-07-20T09:00:19;1.40;;;1.13;;
21786;SDS011;11055;50.870;4.316;2023-07-20T09:02:47;1.05;;;1.00;;
21786;SDS011;11055;50.870;4.316;2023-07-20T09:05:22;2.53;;;1.30;;
21786;SDS011;11055;50.870;4.316;2023-07-20T09:07:49;2.67;;;1.10;;
21786;SDS011;11055;50.870;4.316;2023-07-20T09:10:16;3.00;;;1.17;;
21786;SDS011;11055;50.870;4.316;2023-07-20T09:12:42;3.92;;;1.63;;
21786;SDS011;11055;50.870;4.316;2023-07-20T09:15:10;2.58;;;1.23;;
21786;SDS011;11055;50.870;4.316;2023-07-20T09:17:36;2.20;;;1.02;;
21786;SDS011;11055;50.870;4.316;2023-07-20T09:20:09;3.00;;;1.50;;
21786;SDS011;11055;50.870;4.316;2023-07-20T09:22:36;0.82;;;0.82;;
21786;SDS011;11055;50.870;4.316;2023-07-20T09:25:06;1.30;;;1.15;;
21786;SDS011;11055;50.870;4.316;2023-07-20T09:27:36;1.88;;;1.27;;
21786;SDS011;11055;50.870;4.316;2023-07-20T09:30:09;2.15;;;1.20;;
21786;SDS011;11055;50.870;4.316;2023-07-20T09:32:38;1.52;;;1.17;;
21786;SDS011;11055;50.870;4.316;2023-07-20T09:35:15;0.98;;;0.77;;
21786;SDS011;11055;50.870;4.316;2023-07-20T09:40:23;1.73;;;1.00;;
21786;SDS011;11055;50.870;4.316;2023-07-20T09:42:50;2.25;;;0.90;;
21786;SDS011;11055;50.870;4.316;2023-07-20T09:45:18;2.72;;;1.02;;
21786;SDS011;11055;50.870;4.316;2023-07-20T09:47:44;2.17;;;1.20;;
21786;SDS011;11055;50.870;4.316;2023-07-20T09:50:11;1.20;;;1.00;;
21786;SDS011;11055;50.870;4.316;2023-07-20T09:52:37;3.10;;;1.30;;
21786;SDS011;11055;50.870;4.316;2023-07-20T09:55:05;2.35;;;1.00;;
21786;SDS011;11055;50.870;4.316;2023-07-20T10:00:05;1.13;;;1.02;;
21786;SDS011;11055;50.870;4.316;2023-07-20T10:02:37;2.13;;;1.15;;
21786;SDS011;11055;50.870;4.316;2023-07-20T10:05:08;3.13;;;1.13;;
21786;SDS011;11055;50.870;4.316;2023-07-20T10:07:48;1.17;;;0.90;;
21786;SDS011;11055;50.870;4.316;2023-07-20T10:10:15;2.42;;;1.08;;
21786;SDS011;11055;50.870;4.316;2023-07-20T10:12:42;2.70;;;0.98;;
21786;SDS011;11055;50.870;4.316;2023-07-20T10:20:24;1.52;;;1.10;;
21786;SDS011;11055;50.870;4.316;2023-07-20T10:22:52;2.08;;;1.10;;
21786;SDS011;11055;50.870;4.316;2023-07-20T10:25:20;1.73;;;1.23;;
21786;SDS011;11055;50.870;4.316;2023-07-20T10:27:47;2.03;;;1.10;;
21786;SDS011;11055;50.870;4.316;2023-07-20T10:30:13;4.07;;;0.95;;
21786;SDS011;11055;50.870;4.316;2023-07-20T10:32:40;1.73;;;1.02;;
21786;SDS011;11055;50.870;4.316;2023-07-20T10:35:14;1.10;;;1.00;;
21786;SDS011;11055;50.870;4.316;2023-07-20T10:37:50;2.50;;;1.00;;
21786;SDS011;11055;50.870;4.316;2023-07-20T10:48:24;2.33;;;1.00;;
21786;SDS011;11055;50.870;4.316;2023-07-20T10:53:36;1.10;;;1.00;;
21786;SDS011;11055;50.870;4.316;2023-07-20T10:56:05;1.70;;;1.27;;
21786;SDS011;11055;50.870;4.316;2023-07-20T11:01:03;1.27;;;1.10;;
21786;SDS011;11055;50.870;4.316;2023-07-20T11:03:36;1.98;;;1.20;;
21786;SDS011;11055;50.870;4.316;2023-07-20T11:11:41;2.50;;;1.10;;
21786;SDS011;11055;50.870;4.316;2023-07-20T11:14:09;3.90;;;1.50;;
21786;SDS011;11055;50.870;4.316;2023-07-20T11:16:45;4.13;;;1.60;;
21786;SDS011;11055;50.870;4.316;2023-07-20T11:21:45;2.20;;;1.30;;
21786;SDS011;11055;50.870;4.316;2023-07-20T11:24:14;1.95;;;1.30;;
21786;SDS011;11055;50.870;4.316;2023-07-20T11:26:41;2.35;;;1.40;;
21786;SDS011;11055;50.870;4.316;2023-07-20T11:29:10;2.55;;;1.30;;
21786;SDS011;11055;50.870;4.316;2023-07-20T11:31:37;3.17;;;1.42;;
21786;SDS011;11055;50.870;4.316;2023-07-20T11:34:03;1.35;;;1.25;;
21786;SDS011;11055;50.870;4.316;2023-07-20T11:36:29;2.63;;;1.60;;
21786;SDS011;11055;50.870;4.316;2023-07-20T11:38:55;1.33;;;1.23;;
21786;SDS011;11055;50.870;4.316;2023-07-20T11:41:21;2.20;;;1.42;;
21786;SDS011;11055;50.870;4.316;2023-07-20T11:43:47;2.33;;;2.13;;
21786;SDS011;11055;50.870;4.316;2023-07-20T11:46:13;2.53;;;1.77;;
21786;SDS011;11055;50.870;4.316;2023-07-20T11:48:39;3.42;;;1.30;;
21786;SDS011;11055;50.870;4.316;2023-07-20T11:51:05;2.95;;;1.50;;
21786;SDS011;11055;50.870;4.316;2023-07-20T11:53:30;1.38;;;1.27;;
21786;SDS011;11055;50.870;4.316;2023-07-20T11:55:58;2.28;;;1.50;;
21786;SDS011;11055;50.870;4.316;2023-07-20T11:58:24;1.52;;;1.40;;
21786;SDS011;11055;50.870;4.316;2023-07-20T12:00:52;2.05;;;1.60;;
21786;SDS011;11055;50.870;4.316;2023-07-20T12:03:20;4.03;;;1.85;;
21786;SDS011;11055;50.870;4.316;2023-07-20T12:05:46;2.63;;;1.80;;
21786;SDS011;11055;50.870;4.316;2023-07-20T12:08:12;2.13;;;1.80;;
21786;SDS011;11055;50.870;4.316;2023-07-20T12:10:39;1.77;;;1.67;;
21786;SDS011;11055;50.870;4.316;2023-07-20T12:13:09;3.42;;;1.65;;
21786;SDS011;11055;50.870;4.316;2023-07-20T12:15:39;2.25;;;1.70;;
21786;SDS011;11055;50.870;4.316;2023-07-20T12:18:04;3.20;;;1.95;;
21786;SDS011;11055;50.870;4.316;2023-07-20T12:20:32;2.85;;;1.63;;
21786;SDS011;11055;50.870;4.316;2023-07-20T12:28:16;5.07;;;1.73;;
21786;SDS011;11055;50.870;4.316;2023-07-20T12:30:43;1.98;;;1.73;;
21786;SDS011;11055;50.870;4.316;2023-07-20T12:33:21;1.92;;;1.83;;
21786;SDS011;11055;50.870;4.316;2023-07-20T12:35:47;1.73;;;1.63;;
21786;SDS011;11055;50.870;4.316;2023-07-20T12:38:13;3.47;;;1.67;;
21786;SDS011;11055;50.870;4.316;2023-07-20T12:40:38;3.80;;;2.00;;
21786;SDS011;11055;50.870;4.316;2023-07-20T12:43:05;2.72;;;1.67;;
21786;SDS011;11055;50.870;4.316;2023-07-20T12:45:31;2.17;;;1.50;;
21786;SDS011;11055;50.870;4.316;2023-07-20T12:47:57;1.83;;;1.73;;
21786;SDS011;11055;50.870;4.316;2023-07-20T12:50:23;4.07;;;1.77;;
21786;SDS011;11055;50.870;4.316;2023-07-20T12:52:48;5.10;;;1.90;;
21786;SDS011;11055;50.870;4.316;2023-07-20T12:55:14;2.20;;;2.00;;
21786;SDS011;11055;50.870;4.316;2023-07-20T12:57:40;1.90;;;1.80;;
21786;SDS011;11055;50.870;4.316;2023-07-20T13:00:07;1.90;;;1.73;;
21786;SDS011;11055;50.870;4.316;2023-07-20T13:02:35;2.08;;;1.70;;
21786;SDS011;11055;50.870;4.316;2023-07-20T13:05:01;2.38;;;1.80;;
21786;SDS011;11055;50.870;4.316;2023-07-20T13:07:31;3.00;;;1.80;;
21786;SDS011;11055;50.870;4.316;2023-07-20T13:09:58;1.88;;;1.75;;
21786;SDS011;11055;50.870;4.316;2023-07-20T13:12:26;4.57;;;1.95;;
21786;SDS011;11055;50.870;4.316;2023-07-20T13:14:55;3.85;;;1.98;;
21786;SDS011;11055;50.870;4.316;2023-07-20T13:17:22;2.40;;;1.75;;
21786;SDS011;11055;50.870;4.316;2023-07-20T13:19:48;2.17;;;1.98;;
21786;SDS011;11055;50.870;4.316;2023-07-20T13:22:14;2.55;;;1.85;;
21786;SDS011;11055;50.870;4.316;2023-07-20T13:24:44;1.92;;;1.52;;
21786;SDS011;11055;50.870;4.316;2023-07-20T13:27:16;2.60;;;1.70;;
21786;SDS011;11055;50.870;4.316;2023-07-20T13:29:43;2.35;;;1.77;;
21786;SDS011;11055;50.870;4.316;2023-07-20T13:32:08;2.60;;;1.65;;
21786;SDS011;11055;50.870;4.316;2023-07-20T13:34:35;3.80;;;1.75;;
21786;SDS011;11055;50.870;4.316;2023-07-20T13:37:01;3.15;;;2.00;;
21786;SDS011;11055;50.870;4.316;2023-07-20T13:39:27;3.00;;;2.15;;
21786;SDS011;11055;50.870;4.316;2023-07-20T13:41:54;3.67;;;2.38;;
21786;SDS011;11055;50.870;4.316;2023-07-20T13:44:20;3.42;;;1.98;;
21786;SDS011;11055;50.870;4.316;2023-07-20T13:46:48;4.90;;;2.10;;
21786;SDS011;11055;50.870;4.316;2023-07-20T13:49:14;3.20;;;2.22;;
21786;SDS011;11055;50.870;4.316;2023-07-20T13:51:43;2.58;;;2.33;;
21786;SDS011;11055;50.870;4.316;2023-07-20T13:54:10;3.80;;;2.60;;
21786;SDS011;11055;50.870;4.316;2023-07-20T13:56:36;5.85;;;2.33;;
21786;SDS011;11055;50.870;4.316;2023-07-20T13:59:04;2.60;;;2.40;;
21786;SDS011;11055;50.870;4.316;2023-07-20T14:01:29;3.83;;;2.53;;
21786;SDS011;11055;50.870;4.316;2023-07-20T14:03:59;4.95;;;2.50;;
21786;SDS011;11055;50.870;4.316;2023-07-20T14:06:31;2.80;;;2.60;;
21786;SDS011;11055;50.870;4.316;2023-07-20T14:08:58;3.20;;;2.47;;
21786;SDS011;11055;50.870;4.316;2023-07-20T14:11:24;3.13;;;2.47;;
21786;SDS011;11055;50.870;4.316;2023-07-20T14:13:51;4.78;;;2.55;;
21786;SDS011;11055;50.870;4.316;2023-07-20T14:16:21;5.20;;;2.42;;
21786;SDS011;11055;50.870;4.316;2023-07-20T14:18:48;3.55;;;2.53;;
21786;SDS011;11055;50.870;4.316;2023-07-20T14:21:14;2.35;;;2.15;;
21786;SDS011;11055;50.870;4.316;2023-07-20T14:23:40;2.92;;;1.90;;
21786;SDS011;11055;50.870;4.316;2023-07-20T14:26:06;4.28;;;1.80;;
21786;SDS011;11055;50.870;4.316;2023-07-20T14:28:33;1.85;;;1.67;;
21786;SDS011;11055;50.870;4.316;2023-07-20T14:31:00;2.05;;;1.88;;
21786;SDS011;11055;50.870;4.316;2023-07-20T14:33:25;3.10;;;1.70;;
21786;SDS011;11055;50.870;4.316;2023-07-20T14:35:51;1.58;;;1.48;;
21786;SDS011;11055;50.870;4.316;2023-07-20T14:38:17;4.28;;;1.90;;
21786;SDS011;11055;50.870;4.316;2023-07-20T14:40:42;2.92;;;2.00;;
21786;SDS011;11055;50.870;4.316;2023-07-20T14:43:08;1.92;;;1.40;;
21786;SDS011;11055;50.870;4.316;2023-07-20T14:45:34;3.08;;;1.70;;
21786;SDS011;11055;50.870;4.316;2023-07-20T14:48:02;2.05;;;1.50;;
21786;SDS011;11055;50.870;4.316;2023-07-20T14:50:28;2.75;;;1.83;;
21786;SDS011;11055;50.870;4.316;2023-07-20T14:52:53;2.65;;;2.00;;
21786;SDS011;11055;50.870;4.316;2023-07-20T14:55:19;3.60;;;2.13;;
21786;SDS011;11055;50.870;4.316;2023-07-20T14:57:45;2.10;;;1.90;;
21786;SDS011;11055;50.870;4.316;2023-07-20T15:00:11;3.33;;;2.30;;
21786;SDS011;11055;50.870;4.316;2023-07-20T15:02:40;3.40;;;2.00;;
21786;SDS011;11055;50.870;4.316;2023-07-20T15:05:06;3.22;;;2.45;;
21786;SDS011;11055;50.870;4.316;2023-07-20T15:07:33;2.13;;;1.58;;
21786;SDS011;11055;50.870;4.316;2023-07-20T15:10:00;2.08;;;1.80;;
21786;SDS011;11055;50.870;4.316;2023-07-20T15:12:25;4.15;;;1.80;;
21786;SDS011;11055;50.870;4.316;2023-07-20T15:15:10;3.58;;;1.95;;
21786;SDS011;11055;50.870;4.316;2023-07-20T15:17:40;6.45;;;4.65;;
21786;SDS011;11055;50.870;4.316;2023-07-20T15:20:08;3.13;;;1.70;;
21786;SDS011;11055;50.870;4.316;2023-07-20T15:22:35;2.67;;;1.48;;
21786;SDS011;11055;50.870;4.316;2023-07-20T15:25:04;2.30;;;1.52;;
21786;SDS011;11055;50.870;4.316;2023-07-20T15:27:31;2.10;;;1.80;;